Robein, Illinois
Current Conditions -  °F | °C
As of 11:11 AM on Wednesday 26 Nov 2014 (Local Time) from KPIA Reporting Station
Haze Haze  
Wind Chill: 24°   Ceiling: 1100
Heat Index: 32°   Visibility: 6mi
Dew Point: 25°   Wind: 9mph
Humidity: 75%   Direction: 100°E
Pressure: 30.07"   Gusts: NA
Location:  40.7043°N, 89.529°W
Report Text: KPIA 261711Z 10008KT 6SM HZ BKN011 BKN100 00/M04 A3007 RMK AO2 T00001039
Loading
Personal Weather Stations






























Interactive Weather Map New forecast layout! Learn more

10-Day Weather Forecast

Advertisements
Track Severe Weather on mobile